Terminal Aerodrome Forecast
Issued by NWS

Home | Current Version | Previous Version | Text Only | Print | Product List | Glossary On
Versions: 1 2 3 4 5 6 7 8 9 10 11 12 13 14 15 16 17 18
599
FTUS44 KMAF 272320
TAFHOB
TAF
KHOB 272320Z 2800/2824 16009KT P6SM FEW200
     FM281500 20013G23KT P6SM FEW200
     FM281800 22024G34KT P6SM FEW200=

USA.gov is the U.S. government's official web portal to all federal, state and local government web resources and services.